Aviation Digital Data Service (ADDS)

Output produced by METARs form (2208 UTC 24 March 2019)
found at http://www.aviationweather.gov/metar/data/
 
OIAA 242200Z 15006KT 9999 -SHRA FEW030CB SCT035 OVC080 22/18 Q1001
TAF OIAA 241100Z 2412/2518 12012KT 7000 FEW035CB SCT040 BKN100 
     TEMPO 2412/2415 14018G28KT 3000 TS/SHRA SA SCT035CB SCT040 OVC100 
     BECMG 2420/2422 14016KT 4000 TSRA BR FEW035CB SCT040 BKN100 
     TEMPO 2500/2510 16020G30KT 1500 TSRA SA SCT030CB SCT035 OVC090 
     BECMG 2516/2518 14010KT 2000 TSRA BR FEW030 SCT100
       
OIAG 242000Z 14014KT 9999 FEW035CB SCT040 BKN100 23/16 Q1006
OIAW 242200Z 24004KT 6000 RA FEW030CB SCT035 OVC090 21/18 Q1003
TAF OIAW 241730Z 2418/2524 14014KT 6000 FEW035CB SCT040 BKN100 
     BECMG 2420/2422 14018KT 4000 TSRA BR 
     TEMPO 2509/2518 16025G35KT 1500 TSRA SA SCT030CB SCT035 OVC090 
     BECMG 2519/2521 06012KT 2000 RA
       
OITL 242151Z 07016KT 0100 R15/0600N R33/1200U FG OVC002 00/00 Q1009
OIKB 242200Z 04008KT 9999 FEW030 19/14 Q1013 A2991
TAF OIKB 241730Z 2418/2524 05010KT 7000 SCT030 
     TEMPO 2419/2423 FEW035CB SCT040 SCT100 
     BECMG 2500/2502 4000 HZ/BR 
     BECMG 2504/2506 6000 FEW035 SCT100 
     BECMG 2507/2509 FEW030CB SCT035 BKN100 
     TEMPO 2509/2518 15014KT 5000 RA 
     PROB40 2509/2518 TS 
     BECMG 2518/2520 4000 BR 
     TEMPO 2521/2524 2000 BR SCT020
       
OIBL 242100Z 08018KT 5000 SA NSC 22/15 Q1010
OIMB 242200Z 09012KT CAVOK 11/03 Q1016
OIMN 242200Z 26002KT CAVOK 08/04 Q1012
OIBB 242150Z 16010KT CAVOK 23/15 Q1003 A2963
OIKQ 242200Z 08014KT CAVOK 21/15 Q1011
OIFM 242200Z 03004KT 9999 FEW040 OVC100 12/00 Q1012 A2989
TAF OIFM 241730Z 2418/2524 22016KT 6000 FEW035CB SCT040 BKN100 
     TEMPO 2423/2503 4000 BR 
     TEMPO 2506/2515 14014G24KT 3000 TSRA SCT030CB SCT035 OVC090 
     TEMPO 2518/2521 5000 TSRA SCT030CB SCT035 OVC090
       
OISF 242200Z 00000KT 9999 SCT040 OVC100 13/11 Q1012 A2991
OIAH 242200Z 15008KT 9999 FEW040 BKN100 19/10 Q1007
OIIK 242200Z 00000KT 9999 FEW035CB OVC080 08/06 Q1009
OING 242200Z 00000KT 9999 SCT025 OVC080 12/10 Q1011
OIHH 242200Z 18002KT 8000 RA FEW025 SCT030CB BKN035 OVC080 05/04 Q1008 A2979
OICI 242200Z 13016G35KT 9000 FEW025CB SCT030 OVC070 11/09 Q1005 A2970
TAF OICI 241730Z 2418/2524 12012KT 5000 RA FEW025CB SCT030 OVC070 
     TEMPO 2421/2503 16018KT 2000 TSRA 
     TEMPO 2506/2515 14014G24KT 2000 TSRA 
     BECMG 2518/2520 12008KT FEW030 BKN100 
     TEMPO 2518/2524 FEW030CB SCT035 BKN100
       
OIZI 242100Z 02008KT 9999 FEW040 15/13 Q1016
OIZJ 242100Z 12010KT 8000 SCT015 23/21 Q1012
OINE 242200Z AUTO 20002KT //// // ////// 12/10 Q1009
OIKK 242200Z 10006KT CAVOK 06/04 Q1018 A3007
TAF OIKK 241730Z 2418/2524 15008KT 7000 FEW035 
     BECMG 2507/2509 FEW035CB SCT040 BKN100 
     TEMPO 2509/2518 23018KT 4000 TSRA FEW030CB SCT035 OVC090
       
OICK 242150Z 10002KT 5000 RA FEW030CB SCT035 OVC060 09/09 Q1008
OIBK 242200Z 09018KT 7000 NSC 24/13 Q1008
TAF OIBK 241730Z 2418/2524 12020KT 6000 FEW030 SCT100 
     PROB40 
     TEMPO 2500/2505 12020G30KT 4000 SA FEW035CB SCT040 BKN100 
     BECMG 2506/2508 FEW035CB SCT040 BKN100 
     PROB40 
     TEMPO 2508/2515 12020G30KT 3000 TSRA SA SCT030CB SCT035 BKN090
       
OISL 242100Z 11008KT CAVOK 16/15 Q1013
TAF OISL 241730Z 2418/2524 12010KT 7000 FEW040 SCT100 
     BECMG 2506/2508 6000 FEW035CB SCT040 BKN100 
     TEMPO 2508/2516 16010G20KT 4000 TSRA SA SCT030CB SCT035 OVC090
       
OIAM 242200Z 13016KT 7000 FEW035CB SCT040 OVC100 21/17 Q1001
OIMM 242200Z 23004KT 7000 NSC 10/07 Q1013 A2992
TAF OIMM 241730Z 2418/2524 20008KT 7000 FEW040 
     PROB40 2422/2504 4000 BR 
     TEMPO 2509/2515 20012G22KT 6000 FEW030CB SCT035 BKN090 
     TEMPO 2520/2524 4000 SHRA FEW035CB SCT040 BKN090
       
OIII 242200Z 05006KT 9999 FEW035CB BKN100 14/02 Q1010 A2984
TAF OIII 241730Z 2418/2524 13010KT 6000 RA FEW030CB SCT035 OVC090 
     TEMPO 2418/2506 15018KT 4000 TS SHRA SCT030CB SCT035 OVC080 
     TEMPO 2509/2518 12015G25KT 2000 TSRA SCT030CB SCT035 OVC080 
     BECMG 2519/2521 28008KT FEW030CB SCT035 BKN100
       
OINN 242200Z 29006KT 5000 -DZ BKN015 FEW020CB 11/11 Q1011
OITP 242200Z AUTO 29004KT //// // ////// 07/06 Q1013
OIIP 241800Z 11010KT 7000 -RA SCT030CB SCT035 OVC080 09/03 Q1011
OINR 242100Z 32012KT 3000 DZ OVC008 10/10 Q1011
OIGG 242200Z 34004KT 3500 -DZ BKN010 FEW015CB OVC070 09/09 Q1013
OITM 242100Z 09010KT 9999 FEW038 OVC090 08/04 Q1005
OICS 242200Z 00000KT 3000 RA FEW020 FEW030CB SCT035 OVC070 07/06 Q1007 A2975
OIMC 242200Z AUTO 36004KT //// // ////// 16/09 Q1011
OINZ 241800Z 24012KT 9999 SCT090 BKN170 13/11 Q1010
OIIS 242200Z 00000KT 9999 FEW030 OVC100 13/00 Q1011
OICC 242200Z 08012KT 7000 RA SCT025 BKN040 OVC060 07/05 Q1008 A2979
OIAI 242000Z 15004KT 9999 FEW035CB SCT040 OVC080 20/12 Q1005
OIFS 242200Z 14006KT 9999 FEW030CB SCT035 OVC090 07/03 Q1014
OISS 242200Z 12004KT 6000 FEW040 OVC100 13/09 Q1015 A2997
TAF OISS 241730Z 2418/2524 14008KT 6000 FEW035CB SCT040 BKN100 
     BECMG 2423/2501 4000 BR 
     BECMG 2503/2505 3000 RA BR FEW035CB SCT040 OVC100 
     TEMPO 2509/2518 18010G20KT 2000 TSRA SCT030CB SCT035 OVC090
       
OIMT 242100Z AUTO 15004KT //// // ////// 19/04 Q1010
OITT 242200Z 12006KT 8000 SCT015 FEW032CB BKN070 08/04 Q1006 A2973
TAF OITT 241730Z 2418/2524 06012KT 6000 RA SCT010 FEW030CB OVC070 
     PROB40 2501/2505 3000 BR 
     TEMPO 2509/2518 22018G28KT 2000 SNRA
       
OITR 242200Z 03006KT 8000 -RA FEW030CB SCT035 OVC080 06/05 Q1004
TAF OITR 241730Z 2418/2524 06008KT 5000 RA BR FEW030CB SCT035 BKN080 
     TEMPO 2418/2424 24014KT 
     PROB40 2424/2504 2000 BR 
     TEMPO 2506/2515 24018G24KT 3000 TS SHRA SCT020 FEW030CB SCT035 OVC080 
     BECMG 2521/2523 3000 BR SCT020 FEW030CB SCT035 OVC080
       
OISY 242200Z 09004KT 9999 SCT040 OVC080 11/01 Q1016
OIYY 242200Z 19002KT 9999 FEW100 BKN200 17/M01 Q1011
OIZB 242100Z 14006KT CAVOK 15/07 Q1015
OIZH 242200Z 16008KT CAVOK 12/05 Q1017 A3005
TAF OIZH 241730Z 2418/2524 20010KT 7000 FEW040 
     BECMG 2506/2508 20014KT 
     TEMPO 2508/2514 20016G24KT 5000 SA 
     TEMPO 2515/2524 20016G26KT 3000 SA FEW035CB SCT040 BKN100